sensor_id;sensor_type;location;lat;lon;timestamp;P1;durP1;ratioP1;P2;durP2;ratioP2
44536;SDS011;30245;51.966;6.292;2023-07-02T00:00:20;0.68;;;0.30;;
44536;SDS011;30245;51.966;6.292;2023-07-02T00:02:46;1.10;;;0.30;;
44536;SDS011;30245;51.966;6.292;2023-07-02T00:05:12;1.13;;;0.40;;
44536;SDS011;30245;51.966;6.292;2023-07-02T00:07:38;1.40;;;0.50;;
44536;SDS011;30245;51.966;6.292;2023-07-02T00:10:04;1.88;;;0.40;;
44536;SDS011;30245;51.966;6.292;2023-07-02T00:12:30;6.03;;;0.60;;
44536;SDS011;30245;51.966;6.292;2023-07-02T00:14:56;5.47;;;0.70;;
44536;SDS011;30245;51.966;6.292;2023-07-02T00:17:21;2.25;;;0.70;;
44536;SDS011;30245;51.966;6.292;2023-07-02T00:19:47;3.28;;;0.50;;
44536;SDS011;30245;51.966;6.292;2023-07-02T00:22:16;3.05;;;0.45;;
44536;SDS011;30245;51.966;6.292;2023-07-02T00:24:42;1.30;;;0.70;;
44536;SDS011;30245;51.966;6.292;2023-07-02T00:27:07;3.85;;;0.80;;
44536;SDS011;30245;51.966;6.292;2023-07-02T00:29:33;4.28;;;0.68;;
44536;SDS011;30245;51.966;6.292;2023-07-02T00:31:59;4.28;;;1.63;;
44536;SDS011;30245;51.966;6.292;2023-07-02T00:34:24;3.83;;;0.80;;
44536;SDS011;30245;51.966;6.292;2023-07-02T00:36:51;4.30;;;1.25;;
44536;SDS011;30245;51.966;6.292;2023-07-02T00:39:17;4.32;;;0.77;;
44536;SDS011;30245;51.966;6.292;2023-07-02T00:41:43;3.20;;;0.60;;
44536;SDS011;30245;51.966;6.292;2023-07-02T00:44:11;2.05;;;0.85;;
44536;SDS011;30245;51.966;6.292;2023-07-02T00:46:40;8.02;;;1.55;;
44536;SDS011;30245;51.966;6.292;2023-07-02T00:49:05;3.72;;;1.17;;
44536;SDS011;30245;51.966;6.292;2023-07-02T00:51:32;3.33;;;1.13;;
44536;SDS011;30245;51.966;6.292;2023-07-02T00:53:58;5.60;;;1.17;;
44536;SDS011;30245;51.966;6.292;2023-07-02T00:56:25;6.22;;;2.33;;
44536;SDS011;30245;51.966;6.292;2023-07-02T00:58:52;8.05;;;1.90;;
44536;SDS011;30245;51.966;6.292;2023-07-02T01:01:22;3.85;;;2.35;;
44536;SDS011;30245;51.966;6.292;2023-07-02T01:06:17;6.10;;;1.92;;
44536;SDS011;30245;51.966;6.292;2023-07-02T01:08:45;6.22;;;1.90;;
44536;SDS011;30245;51.966;6.292;2023-07-02T01:11:13;3.97;;;1.75;;
44536;SDS011;30245;51.966;6.292;2023-07-02T01:13:39;3.72;;;1.70;;
44536;SDS011;30245;51.966;6.292;2023-07-02T01:16:05;8.65;;;3.10;;
44536;SDS011;30245;51.966;6.292;2023-07-02T01:18:30;7.32;;;2.40;;
44536;SDS011;30245;51.966;6.292;2023-07-02T01:20:56;3.67;;;2.22;;
44536;SDS011;30245;51.966;6.292;2023-07-02T01:23:22;7.07;;;3.08;;
44536;SDS011;30245;51.966;6.292;2023-07-02T01:25:50;7.20;;;3.28;;
44536;SDS011;30245;51.966;6.292;2023-07-02T01:30:42;8.70;;;3.08;;
44536;SDS011;30245;51.966;6.292;2023-07-02T01:33:08;9.20;;;3.35;;
44536;SDS011;30245;51.966;6.292;2023-07-02T01:35:33;7.65;;;3.38;;
44536;SDS011;30245;51.966;6.292;2023-07-02T01:37:59;8.05;;;2.25;;
44536;SDS011;30245;51.966;6.292;2023-07-02T01:40:24;4.35;;;2.35;;
44536;SDS011;30245;51.966;6.292;2023-07-02T01:42:50;5.75;;;1.98;;
44536;SDS011;30245;51.966;6.292;2023-07-02T01:45:15;6.53;;;2.38;;
44536;SDS011;30245;51.966;6.292;2023-07-02T01:47:41;4.63;;;1.95;;
44536;SDS011;30245;51.966;6.292;2023-07-02T01:50:07;5.35;;;2.20;;
44536;SDS011;30245;51.966;6.292;2023-07-02T01:52:33;4.95;;;2.05;;
44536;SDS011;30245;51.966;6.292;2023-07-02T01:54:59;7.55;;;2.10;;
44536;SDS011;30245;51.966;6.292;2023-07-02T01:57:25;7.25;;;1.95;;
44536;SDS011;30245;51.966;6.292;2023-07-02T01:59:51;6.95;;;2.17;;
44536;SDS011;30245;51.966;6.292;2023-07-02T02:02:17;7.32;;;1.95;;
44536;SDS011;30245;51.966;6.292;2023-07-02T02:04:42;5.88;;;2.60;;
44536;SDS011;30245;51.966;6.292;2023-07-02T02:07:08;4.82;;;2.25;;
44536;SDS011;30245;51.966;6.292;2023-07-02T02:09:34;5.70;;;2.25;;
44536;SDS011;30245;51.966;6.292;2023-07-02T02:11:59;5.65;;;2.20;;
44536;SDS011;30245;51.966;6.292;2023-07-02T02:14:25;7.03;;;3.00;;
44536;SDS011;30245;51.966;6.292;2023-07-02T02:16:50;8.15;;;2.42;;
44536;SDS011;30245;51.966;6.292;2023-07-02T02:19:16;4.15;;;1.75;;
44536;SDS011;30245;51.966;6.292;2023-07-02T02:21:42;7.25;;;2.20;;
44536;SDS011;30245;51.966;6.292;2023-07-02T02:24:08;6.85;;;1.60;;
44536;SDS011;30245;51.966;6.292;2023-07-02T02:26:34;5.00;;;2.15;;
44536;SDS011;30245;51.966;6.292;2023-07-02T02:29:00;6.65;;;2.72;;
44536;SDS011;30245;51.966;6.292;2023-07-02T02:31:26;6.00;;;2.35;;
44536;SDS011;30245;51.966;6.292;2023-07-02T02:33:52;5.95;;;2.58;;
44536;SDS011;30245;51.966;6.292;2023-07-02T02:36:18;6.10;;;1.85;;
44536;SDS011;30245;51.966;6.292;2023-07-02T02:38:43;5.45;;;1.95;;
44536;SDS011;30245;51.966;6.292;2023-07-02T02:41:09;3.08;;;1.60;;
44536;SDS011;30245;51.966;6.292;2023-07-02T02:43:35;3.85;;;1.73;;
44536;SDS011;30245;51.966;6.292;2023-07-02T02:46:00;7.65;;;2.25;;
44536;SDS011;30245;51.966;6.292;2023-07-02T02:48:26;4.75;;;2.25;;
44536;SDS011;30245;51.966;6.292;2023-07-02T02:50:51;9.43;;;2.13;;
44536;SDS011;30245;51.966;6.292;2023-07-02T02:53:17;7.60;;;2.35;;
44536;SDS011;30245;51.966;6.292;2023-07-02T02:55:43;4.20;;;1.73;;
44536;SDS011;30245;51.966;6.292;2023-07-02T02:58:08;5.57;;;1.83;;
44536;SDS011;30245;51.966;6.292;2023-07-02T03:00:34;6.00;;;1.83;;
44536;SDS011;30245;51.966;6.292;2023-07-02T03:03:00;8.45;;;2.75;;
44536;SDS011;30245;51.966;6.292;2023-07-02T03:05:25;7.20;;;2.17;;
44536;SDS011;30245;51.966;6.292;2023-07-02T03:07:51;6.78;;;2.58;;
44536;SDS011;30245;51.966;6.292;2023-07-02T03:10:17;7.22;;;2.53;;
44536;SDS011;30245;51.966;6.292;2023-07-02T03:12:43;7.13;;;1.85;;
44536;SDS011;30245;51.966;6.292;2023-07-02T03:15:09;8.85;;;2.50;;
44536;SDS011;30245;51.966;6.292;2023-07-02T03:17:35;9.25;;;2.80;;
44536;SDS011;30245;51.966;6.292;2023-07-02T03:20:01;7.10;;;3.22;;
44536;SDS011;30245;51.966;6.292;2023-07-02T03:22:29;4.93;;;2.67;;
44536;SDS011;30245;51.966;6.292;2023-07-02T03:24:55;9.27;;;2.65;;
44536;SDS011;30245;51.966;6.292;2023-07-02T03:27:20;6.80;;;2.75;;
44536;SDS011;30245;51.966;6.292;2023-07-02T03:29:46;6.32;;;2.33;;
44536;SDS011;30245;51.966;6.292;2023-07-02T03:32:11;7.60;;;3.03;;
44536;SDS011;30245;51.966;6.292;2023-07-02T03:34:37;7.00;;;3.00;;
44536;SDS011;30245;51.966;6.292;2023-07-02T03:37:03;7.13;;;2.35;;
44536;SDS011;30245;51.966;6.292;2023-07-02T03:39:29;4.82;;;2.35;;
44536;SDS011;30245;51.966;6.292;2023-07-02T03:41:54;7.07;;;2.10;;
44536;SDS011;30245;51.966;6.292;2023-07-02T03:44:20;4.68;;;2.08;;
44536;SDS011;30245;51.966;6.292;2023-07-02T03:46:45;3.50;;;1.92;;
44536;SDS011;30245;51.966;6.292;2023-07-02T03:49:11;6.65;;;2.28;;
44536;SDS011;30245;51.966;6.292;2023-07-02T03:51:36;6.35;;;1.92;;
44536;SDS011;30245;51.966;6.292;2023-07-02T03:54:03;8.75;;;3.05;;
44536;SDS011;30245;51.966;6.292;2023-07-02T03:56:29;5.68;;;2.58;;
44536;SDS011;30245;51.966;6.292;2023-07-02T03:58:54;8.20;;;2.60;;
44536;SDS011;30245;51.966;6.292;2023-07-02T04:01:20;6.10;;;2.17;;
44536;SDS011;30245;51.966;6.292;2023-07-02T04:03:49;4.75;;;1.85;;
44536;SDS011;30245;51.966;6.292;2023-07-02T04:06:16;11.30;;;2.72;;
44536;SDS011;30245;51.966;6.292;2023-07-02T04:08:42;5.80;;;2.53;;
44536;SDS011;30245;51.966;6.292;2023-07-02T04:11:08;11.00;;;2.92;;
44536;SDS011;30245;51.966;6.292;2023-07-02T04:13:34;7.70;;;2.67;;
44536;SDS011;30245;51.966;6.292;2023-07-02T04:16:00;6.20;;;2.95;;
44536;SDS011;30245;51.966;6.292;2023-07-02T04:18:26;6.70;;;4.18;;
44536;SDS011;30245;51.966;6.292;2023-07-02T04:20:51;5.57;;;2.40;;
44536;SDS011;30245;51.966;6.292;2023-07-02T04:23:17;5.22;;;2.42;;
44536;SDS011;30245;51.966;6.292;2023-07-02T04:25:43;4.53;;;2.42;;
44536;SDS011;30245;51.966;6.292;2023-07-02T04:28:08;5.45;;;2.58;;
44536;SDS011;30245;51.966;6.292;2023-07-02T04:30:34;4.63;;;2.13;;
44536;SDS011;30245;51.966;6.292;2023-07-02T04:33:00;5.60;;;2.60;;
44536;SDS011;30245;51.966;6.292;2023-07-02T04:35:26;8.73;;;3.65;;
44536;SDS011;30245;51.966;6.292;2023-07-02T04:37:51;6.20;;;2.08;;
44536;SDS011;30245;51.966;6.292;2023-07-02T04:40:17;4.72;;;3.65;;
44536;SDS011;30245;51.966;6.292;2023-07-02T04:42:42;8.52;;;2.05;;
44536;SDS011;30245;51.966;6.292;2023-07-02T04:45:12;7.57;;;2.70;;
44536;SDS011;30245;51.966;6.292;2023-07-02T04:47:39;6.47;;;2.13;;
44536;SDS011;30245;51.966;6.292;2023-07-02T04:50:07;4.88;;;2.10;;
44536;SDS011;30245;51.966;6.292;2023-07-02T04:52:32;5.88;;;2.60;;
44536;SDS011;30245;51.966;6.292;2023-07-02T04:54:58;9.02;;;2.33;;
44536;SDS011;30245;51.966;6.292;2023-07-02T04:57:23;8.20;;;3.38;;
44536;SDS011;30245;51.966;6.292;2023-07-02T04:59:49;8.93;;;2.65;;
44536;SDS011;30245;51.966;6.292;2023-07-02T05:02:15;7.50;;;3.00;;
44536;SDS011;30245;51.966;6.292;2023-07-02T05:04:41;8.20;;;3.95;;
44536;SDS011;30245;51.966;6.292;2023-07-02T05:07:06;7.65;;;3.30;;
44536;SDS011;30245;51.966;6.292;2023-07-02T05:09:32;4.82;;;2.47;;
44536;SDS011;30245;51.966;6.292;2023-07-02T05:11:57;6.78;;;2.58;;
44536;SDS011;30245;51.966;6.292;2023-07-02T05:14:23;8.77;;;3.75;;
44536;SDS011;30245;51.966;6.292;2023-07-02T05:16:49;6.82;;;3.40;;
44536;SDS011;30245;51.966;6.292;2023-07-02T05:19:15;10.18;;;3.00;;
44536;SDS011;30245;51.966;6.292;2023-07-02T05:21:41;6.10;;;2.20;;
44536;SDS011;30245;51.966;6.292;2023-07-02T05:24:07;8.50;;;3.20;;
44536;SDS011;30245;51.966;6.292;2023-07-02T05:26:33;5.97;;;2.67;;
44536;SDS011;30245;51.966;6.292;2023-07-02T05:28:59;10.10;;;3.20;;
44536;SDS011;30245;51.966;6.292;2023-07-02T05:31:25;9.95;;;2.33;;
44536;SDS011;30245;51.966;6.292;2023-07-02T05:33:51;8.82;;;3.85;;
44536;SDS011;30245;51.966;6.292;2023-07-02T05:36:16;7.10;;;3.55;;
44536;SDS011;30245;51.966;6.292;2023-07-02T05:38:42;7.32;;;2.90;;
44536;SDS011;30245;51.966;6.292;2023-07-02T05:41:08;7.93;;;3.42;;
44536;SDS011;30245;51.966;6.292;2023-07-02T05:43:34;10.48;;;3.53;;
44536;SDS011;30245;51.966;6.292;2023-07-02T05:45:59;10.65;;;2.92;;
44536;SDS011;30245;51.966;6.292;2023-07-02T05:48:28;13.00;;;3.25;;
44536;SDS011;30245;51.966;6.292;2023-07-02T05:50:53;10.75;;;4.18;;
44536;SDS011;30245;51.966;6.292;2023-07-02T05:53:19;6.25;;;2.65;;
44536;SDS011;30245;51.966;6.292;2023-07-02T05:55:45;5.57;;;2.60;;
44536;SDS011;30245;51.966;6.292;2023-07-02T05:58:11;12.05;;;3.78;;
44536;SDS011;30245;51.966;6.292;2023-07-02T06:00:37;7.90;;;3.30;;
44536;SDS011;30245;51.966;6.292;2023-07-02T06:03:03;11.77;;;3.85;;
44536;SDS011;30245;51.966;6.292;2023-07-02T06:05:29;13.73;;;3.92;;
44536;SDS011;30245;51.966;6.292;2023-07-02T06:07:54;12.68;;;4.53;;
44536;SDS011;30245;51.966;6.292;2023-07-02T06:10:20;15.02;;;5.32;;
44536;SDS011;30245;51.966;6.292;2023-07-02T06:12:46;8.25;;;3.05;;
44536;SDS011;30245;51.966;6.292;2023-07-02T06:15:11;5.75;;;3.20;;
44536;SDS011;30245;51.966;6.292;2023-07-02T06:17:37;7.82;;;4.15;;
44536;SDS011;30245;51.966;6.292;2023-07-02T06:20:03;8.98;;;3.25;;
44536;SDS011;30245;51.966;6.292;2023-07-02T06:22:30;10.48;;;3.85;;
44536;SDS011;30245;51.966;6.292;2023-07-02T06:24:55;14.40;;;4.22;;
44536;SDS011;30245;51.966;6.292;2023-07-02T06:27:21;13.85;;;4.55;;
44536;SDS011;30245;51.966;6.292;2023-07-02T06:29:47;9.55;;;4.45;;
44536;SDS011;30245;51.966;6.292;2023-07-02T06:32:13;8.32;;;4.78;;
44536;SDS011;30245;51.966;6.292;2023-07-02T06:34:39;12.52;;;4.15;;
44536;SDS011;30245;51.966;6.292;2023-07-02T06:37:04;8.93;;;3.15;;
44536;SDS011;30245;51.966;6.292;2023-07-02T06:39:30;11.60;;;4.28;;
44536;SDS011;30245;51.966;6.292;2023-07-02T06:41:56;12.90;;;4.35;;
44536;SDS011;30245;51.966;6.292;2023-07-02T06:44:21;8.20;;;3.47;;
44536;SDS011;30245;51.966;6.292;2023-07-02T06:46:47;8.30;;;2.88;;
44536;SDS011;30245;51.966;6.292;2023-07-02T06:49:13;12.95;;;3.08;;
44536;SDS011;30245;51.966;6.292;2023-07-02T06:51:38;12.63;;;4.20;;
44536;SDS011;30245;51.966;6.292;2023-07-02T06:54:04;13.88;;;3.25;;
44536;SDS011;30245;51.966;6.292;2023-07-02T06:56:30;7.38;;;3.20;;
44536;SDS011;30245;51.966;6.292;2023-07-02T06:58:57;15.30;;;3.42;;
44536;SDS011;30245;51.966;6.292;2023-07-02T07:01:23;5.80;;;2.50;;
44536;SDS011;30245;51.966;6.292;2023-07-02T07:03:48;5.95;;;2.25;;
44536;SDS011;30245;51.966;6.292;2023-07-02T07:06:14;10.57;;;2.97;;
44536;SDS011;30245;51.966;6.292;2023-07-02T07:08:40;11.32;;;3.28;;
44536;SDS011;30245;51.966;6.292;2023-07-02T07:11:05;8.07;;;3.42;;
44536;SDS011;30245;51.966;6.292;2023-07-02T07:13:31;6.70;;;2.75;;
44536;SDS011;30245;51.966;6.292;2023-07-02T07:15:57;6.03;;;2.47;;
44536;SDS011;30245;51.966;6.292;2023-07-02T07:18:23;5.70;;;2.33;;
44536;SDS011;30245;51.966;6.292;2023-07-02T07:20:48;6.32;;;3.95;;
44536;SDS011;30245;51.966;6.292;2023-07-02T07:23:15;10.50;;;3.55;;
44536;SDS011;30245;51.966;6.292;2023-07-02T07:25:41;10.00;;;3.65;;
44536;SDS011;30245;51.966;6.292;2023-07-02T07:28:07;9.63;;;2.53;;
44536;SDS011;30245;51.966;6.292;2023-07-02T07:30:36;8.25;;;2.92;;
44536;SDS011;30245;51.966;6.292;2023-07-02T07:33:02;12.80;;;2.92;;
44536;SDS011;30245;51.966;6.292;2023-07-02T07:35:28;4.95;;;2.25;;
44536;SDS011;30245;51.966;6.292;2023-07-02T07:37:53;4.45;;;2.25;;
44536;SDS011;30245;51.966;6.292;2023-07-02T07:40:19;7.45;;;2.45;;
44536;SDS011;30245;51.966;6.292;2023-07-02T07:42:44;9.02;;;2.58;;
44536;SDS011;30245;51.966;6.292;2023-07-02T07:45:10;8.27;;;2.17;;
44536;SDS011;30245;51.966;6.292;2023-07-02T07:47:36;7.57;;;2.05;;
44536;SDS011;30245;51.966;6.292;2023-07-02T07:50:03;7.07;;;2.78;;
44536;SDS011;30245;51.966;6.292;2023-07-02T07:52:34;7.55;;;2.47;;
44536;SDS011;30245;51.966;6.292;2023-07-02T07:55:01;5.80;;;3.28;;
44536;SDS011;30245;51.966;6.292;2023-07-02T07:57:26;7.00;;;1.92;;
44536;SDS011;30245;51.966;6.292;2023-07-02T07:59:52;7.95;;;2.83;;
44536;SDS011;30245;51.966;6.292;2023-07-02T08:02:18;4.85;;;2.13;;
44536;SDS011;30245;51.966;6.292;2023-07-02T08:04:43;7.00;;;2.47;;
44536;SDS011;30245;51.966;6.292;2023-07-02T08:07:09;5.43;;;2.47;;
44536;SDS011;30245;51.966;6.292;2023-07-02T08:09:34;5.55;;;2.33;;
44536;SDS011;30245;51.966;6.292;2023-07-02T08:12:00;4.15;;;1.77;;
44536;SDS011;30245;51.966;6.292;2023-07-02T08:14:25;7.43;;;2.03;;
44536;SDS011;30245;51.966;6.292;2023-07-02T08:16:51;5.53;;;2.22;;
44536;SDS011;30245;51.966;6.292;2023-07-02T08:19:17;4.50;;;1.95;;
44536;SDS011;30245;51.966;6.292;2023-07-02T08:21:42;9.85;;;2.50;;
44536;SDS011;30245;51.966;6.292;2023-07-02T08:24:08;6.68;;;2.13;;
44536;SDS011;30245;51.966;6.292;2023-07-02T08:26:33;9.90;;;2.78;;
44536;SDS011;30245;51.966;6.292;2023-07-02T08:28:59;5.80;;;2.60;;
44536;SDS011;30245;51.966;6.292;2023-07-02T08:31:25;5.00;;;2.00;;
44536;SDS011;30245;51.966;6.292;2023-07-02T08:33:50;5.22;;;2.55;;
44536;SDS011;30245;51.966;6.292;2023-07-02T08:36:16;7.60;;;2.25;;
44536;SDS011;30245;51.966;6.292;2023-07-02T08:38:41;5.82;;;2.15;;
44536;SDS011;30245;51.966;6.292;2023-07-02T08:41:08;3.92;;;2.03;;
44536;SDS011;30245;51.966;6.292;2023-07-02T08:43:34;6.35;;;1.95;;
44536;SDS011;30245;51.966;6.292;2023-07-02T08:46:02;4.95;;;1.38;;
44536;SDS011;30245;51.966;6.292;2023-07-02T08:48:28;5.90;;;1.70;;
44536;SDS011;30245;51.966;6.292;2023-07-02T08:50:54;6.10;;;2.40;;
44536;SDS011;30245;51.966;6.292;2023-07-02T08:53:21;4.10;;;1.50;;
44536;SDS011;30245;51.966;6.292;2023-07-02T08:55:54;4.90;;;2.42;;
44536;SDS011;30245;51.966;6.292;2023-07-02T08:58:21;7.00;;;2.05;;
44536;SDS011;30245;51.966;6.292;2023-07-02T09:01:08;5.45;;;1.83;;
44536;SDS011;30245;51.966;6.292;2023-07-02T09:03:34;5.70;;;2.40;;
44536;SDS011;30245;51.966;6.292;2023-07-02T09:06:02;7.35;;;2.85;;
44536;SDS011;30245;51.966;6.292;2023-07-02T09:08:28;5.65;;;2.72;;
44536;SDS011;30245;51.966;6.292;2023-07-02T09:10:54;4.25;;;2.22;;
44536;SDS011;30245;51.966;6.292;2023-07-02T09:13:30;3.50;;;1.67;;
44536;SDS011;30245;51.966;6.292;2023-07-02T09:15:55;3.92;;;1.77;;
44536;SDS011;30245;51.966;6.292;2023-07-02T09:18:22;4.78;;;1.80;;
44536;SDS011;30245;51.966;6.292;2023-07-02T09:20:50;5.00;;;1.88;;
44536;SDS011;30245;51.966;6.292;2023-07-02T09:23:17;4.57;;;1.50;;
44536;SDS011;30245;51.966;6.292;2023-07-02T09:25:42;5.88;;;1.48;;
44536;SDS011;30245;51.966;6.292;2023-07-02T09:28:15;4.47;;;1.88;;
44536;SDS011;30245;51.966;6.292;2023-07-02T09:33:17;5.65;;;1.77;;
44536;SDS011;30245;51.966;6.292;2023-07-02T09:35:42;3.90;;;1.52;;
44536;SDS011;30245;51.966;6.292;2023-07-02T09:38:09;5.80;;;2.03;;
44536;SDS011;30245;51.966;6.292;2023-07-02T09:40:37;5.50;;;1.63;;
44536;SDS011;30245;51.966;6.292;2023-07-02T09:43:11;5.03;;;2.65;;
44536;SDS011;30245;51.966;6.292;2023-07-02T09:45:36;8.50;;;2.42;;
44536;SDS011;30245;51.966;6.292;2023-07-02T09:48:03;5.57;;;2.13;;
44536;SDS011;30245;51.966;6.292;2023-07-02T09:50:31;6.32;;;1.40;;
44536;SDS011;30245;51.966;6.292;2023-07-02T09:52:57;6.22;;;1.38;;
44536;SDS011;30245;51.966;6.292;2023-07-02T09:55:23;3.90;;;1.30;;
44536;SDS011;30245;51.966;6.292;2023-07-02T09:57:49;5.75;;;1.45;;
44536;SDS011;30245;51.966;6.292;2023-07-02T10:00:14;3.70;;;1.40;;
44536;SDS011;30245;51.966;6.292;2023-07-02T10:02:41;4.97;;;1.92;;
44536;SDS011;30245;51.966;6.292;2023-07-02T10:05:06;5.25;;;1.98;;
44536;SDS011;30245;51.966;6.292;2023-07-02T10:07:32;4.93;;;1.45;;
44536;SDS011;30245;51.966;6.292;2023-07-02T10:09:58;6.78;;;1.65;;
44536;SDS011;30245;51.966;6.292;2023-07-02T10:12:24;5.05;;;1.92;;
44536;SDS011;30245;51.966;6.292;2023-07-02T10:14:52;3.90;;;1.67;;
44536;SDS011;30245;51.966;6.292;2023-07-02T10:17:22;4.72;;;2.08;;
44536;SDS011;30245;51.966;6.292;2023-07-02T10:19:51;4.60;;;1.45;;
44536;SDS011;30245;51.966;6.292;2023-07-02T10:22:17;3.30;;;1.38;;
44536;SDS011;30245;51.966;6.292;2023-07-02T10:24:50;3.95;;;1.88;;
44536;SDS011;30245;51.966;6.292;2023-07-02T10:27:18;4.40;;;2.20;;
44536;SDS011;30245;51.966;6.292;2023-07-02T10:29:49;5.50;;;1.48;;
44536;SDS011;30245;51.966;6.292;2023-07-02T10:32:27;4.43;;;2.03;;
44536;SDS011;30245;51.966;6.292;2023-07-02T10:34:53;5.82;;;1.75;;
44536;SDS011;30245;51.966;6.292;2023-07-02T10:37:20;5.60;;;1.88;;
44536;SDS011;30245;51.966;6.292;2023-07-02T10:39:45;5.40;;;1.00;;
44536;SDS011;30245;51.966;6.292;2023-07-02T10:42:11;4.60;;;1.67;;
44536;SDS011;30245;51.966;6.292;2023-07-02T10:44:52;3.92;;;1.63;;
44536;SDS011;30245;51.966;6.292;2023-07-02T10:47:18;1.80;;;0.80;;
44536;SDS011;30245;51.966;6.292;2023-07-02T10:49:44;6.18;;;1.10;;
44536;SDS011;30245;51.966;6.292;2023-07-02T10:52:10;6.03;;;1.33;;
44536;SDS011;30245;51.966;6.292;2023-07-02T10:57:09;4.97;;;1.30;;
44536;SDS011;30245;51.966;6.292;2023-07-02T10:59:35;5.00;;;1.17;;
44536;SDS011;30245;51.966;6.292;2023-07-02T11:02:01;5.00;;;1.52;;
44536;SDS011;30245;51.966;6.292;2023-07-02T11:04:27;2.28;;;1.00;;
44536;SDS011;30245;51.966;6.292;2023-07-02T11:06:53;5.68;;;1.55;;
44536;SDS011;30245;51.966;6.292;2023-07-02T11:09:19;5.38;;;1.30;;
44536;SDS011;30245;51.966;6.292;2023-07-02T11:11:53;4.47;;;1.35;;
44536;SDS011;30245;51.966;6.292;2023-07-02T11:14:53;3.33;;;1.10;;
44536;SDS011;30245;51.966;6.292;2023-07-02T11:17:12;4.75;;;1.88;;
44536;SDS011;30245;51.966;6.292;2023-07-02T11:19:37;2.30;;;1.30;;
44536;SDS011;30245;51.966;6.292;2023-07-02T11:22:03;3.10;;;1.38;;
44536;SDS011;30245;51.966;6.292;2023-07-02T11:24:35;4.30;;;1.15;;
44536;SDS011;30245;51.966;6.292;2023-07-02T11:27:04;6.50;;;1.33;;
44536;SDS011;30245;51.966;6.292;2023-07-02T11:29:30;2.85;;;0.98;;
44536;SDS011;30245;51.966;6.292;2023-07-02T11:32:10;3.00;;;1.05;;
44536;SDS011;30245;51.966;6.292;2023-07-02T11:34:36;3.17;;;1.02;;
44536;SDS011;30245;51.966;6.292;2023-07-02T11:37:03;3.50;;;0.98;;
44536;SDS011;30245;51.966;6.292;2023-07-02T11:39:29;4.78;;;1.60;;
44536;SDS011;30245;51.966;6.292;2023-07-02T11:41:55;2.17;;;0.90;;
44536;SDS011;30245;51.966;6.292;2023-07-02T11:44:21;2.65;;;1.00;;
44536;SDS011;30245;51.966;6.292;2023-07-02T11:46:47;3.25;;;0.93;;
44536;SDS011;30245;51.966;6.292;2023-07-02T11:49:13;4.85;;;1.25;;
44536;SDS011;30245;51.966;6.292;2023-07-02T11:51:40;3.97;;;0.90;;
44536;SDS011;30245;51.966;6.292;2023-07-02T11:54:07;5.05;;;1.10;;
44536;SDS011;30245;51.966;6.292;2023-07-02T11:56:33;4.15;;;1.10;;
44536;SDS011;30245;51.966;6.292;2023-07-02T11:58:58;2.88;;;1.25;;
44536;SDS011;30245;51.966;6.292;2023-07-02T12:01:24;6.20;;;1.05;;
44536;SDS011;30245;51.966;6.292;2023-07-02T12:03:50;3.50;;;1.45;;
44536;SDS011;30245;51.966;6.292;2023-07-02T12:06:16;2.97;;;0.80;;
44536;SDS011;30245;51.966;6.292;2023-07-02T12:08:42;4.25;;;1.23;;
44536;SDS011;30245;51.966;6.292;2023-07-02T12:11:07;2.53;;;1.05;;
44536;SDS011;30245;51.966;6.292;2023-07-02T12:13:33;3.35;;;1.25;;
44536;SDS011;30245;51.966;6.292;2023-07-02T12:15:59;3.55;;;1.30;;
44536;SDS011;30245;51.966;6.292;2023-07-02T12:18:25;2.65;;;1.15;;
44536;SDS011;30245;51.966;6.292;2023-07-02T12:20:50;3.50;;;0.98;;
44536;SDS011;30245;51.966;6.292;2023-07-02T12:23:16;2.83;;;1.13;;
44536;SDS011;30245;51.966;6.292;2023-07-02T12:25:42;1.80;;;0.80;;
44536;SDS011;30245;51.966;6.292;2023-07-02T12:28:07;4.57;;;0.90;;
44536;SDS011;30245;51.966;6.292;2023-07-02T12:30:33;2.83;;;0.82;;
44536;SDS011;30245;51.966;6.292;2023-07-02T12:32:58;1.90;;;1.23;;
44536;SDS011;30245;51.966;6.292;2023-07-02T12:35:24;5.03;;;0.90;;
44536;SDS011;30245;51.966;6.292;2023-07-02T12:37:50;2.03;;;1.13;;
44536;SDS011;30245;51.966;6.292;2023-07-02T12:40:18;2.30;;;0.90;;
44536;SDS011;30245;51.966;6.292;2023-07-02T12:42:45;2.90;;;1.53;;
44536;SDS011;30245;51.966;6.292;2023-07-02T12:45:11;3.33;;;0.57;;
44536;SDS011;30245;51.966;6.292;2023-07-02T12:47:38;2.67;;;0.60;;
44536;SDS011;30245;51.966;6.292;2023-07-02T12:50:05;2.72;;;0.63;;
44536;SDS011;30245;51.966;6.292;2023-07-02T12:52:31;1.88;;;1.05;;
44536;SDS011;30245;51.966;6.292;2023-07-02T12:54:58;2.85;;;1.13;;
44536;SDS011;30245;51.966;6.292;2023-07-02T12:57:23;3.80;;;1.17;;
44536;SDS011;30245;51.966;6.292;2023-07-02T12:59:51;3.08;;;1.40;;
44536;SDS011;30245;51.966;6.292;2023-07-02T13:02:23;1.30;;;0.65;;
44536;SDS011;30245;51.966;6.292;2023-07-02T13:04:49;5.57;;;1.27;;
44536;SDS011;30245;51.966;6.292;2023-07-02T13:07:15;2.03;;;0.93;;
44536;SDS011;30245;51.966;6.292;2023-07-02T13:09:41;3.45;;;0.82;;
44536;SDS011;30245;51.966;6.292;2023-07-02T13:12:07;3.45;;;0.52;;
44536;SDS011;30245;51.966;6.292;2023-07-02T13:14:34;3.83;;;0.82;;
44536;SDS011;30245;51.966;6.292;2023-07-02T13:17:00;3.65;;;1.13;;
44536;SDS011;30245;51.966;6.292;2023-07-02T13:19:25;2.13;;;0.93;;
44536;SDS011;30245;51.966;6.292;2023-07-02T13:21:51;2.47;;;0.88;;
44536;SDS011;30245;51.966;6.292;2023-07-02T13:24:17;2.78;;;0.68;;
44536;SDS011;30245;51.966;6.292;2023-07-02T13:26:42;1.35;;;0.82;;
44536;SDS011;30245;51.966;6.292;2023-07-02T13:29:08;2.75;;;0.63;;
44536;SDS011;30245;51.966;6.292;2023-07-02T13:31:33;1.70;;;0.70;;
44536;SDS011;30245;51.966;6.292;2023-07-02T13:33:59;4.13;;;0.85;;
44536;SDS011;30245;51.966;6.292;2023-07-02T13:36:24;1.35;;;0.73;;
44536;SDS011;30245;51.966;6.292;2023-07-02T13:38:53;3.95;;;1.05;;
44536;SDS011;30245;51.966;6.292;2023-07-02T13:41:19;3.30;;;0.82;;
44536;SDS011;30245;51.966;6.292;2023-07-02T13:43:44;3.47;;;1.00;;
44536;SDS011;30245;51.966;6.292;2023-07-02T13:46:10;1.67;;;0.55;;
44536;SDS011;30245;51.966;6.292;2023-07-02T13:48:36;1.38;;;0.65;;
44536;SDS011;30245;51.966;6.292;2023-07-02T13:51:01;2.45;;;0.80;;
44536;SDS011;30245;51.966;6.292;2023-07-02T13:53:27;2.03;;;0.75;;
44536;SDS011;30245;51.966;6.292;2023-07-02T13:55:52;2.40;;;0.70;;
44536;SDS011;30245;51.966;6.292;2023-07-02T13:58:18;3.92;;;0.60;;
44536;SDS011;30245;51.966;6.292;2023-07-02T14:00:44;4.25;;;0.70;;
44536;SDS011;30245;51.966;6.292;2023-07-02T14:03:09;3.17;;;0.90;;
44536;SDS011;30245;51.966;6.292;2023-07-02T14:05:35;4.63;;;0.85;;
44536;SDS011;30245;51.966;6.292;2023-07-02T14:08:00;2.75;;;0.80;;
44536;SDS011;30245;51.966;6.292;2023-07-02T14:10:26;1.67;;;0.80;;
44536;SDS011;30245;51.966;6.292;2023-07-02T14:12:53;1.90;;;0.70;;
44536;SDS011;30245;51.966;6.292;2023-07-02T14:15:19;1.83;;;0.60;;
44536;SDS011;30245;51.966;6.292;2023-07-02T14:17:46;6.05;;;1.30;;
44536;SDS011;30245;51.966;6.292;2023-07-02T14:20:11;3.03;;;0.52;;
44536;SDS011;30245;51.966;6.292;2023-07-02T14:22:37;2.30;;;0.75;;
44536;SDS011;30245;51.966;6.292;2023-07-02T14:25:03;2.83;;;1.30;;
44536;SDS011;30245;51.966;6.292;2023-07-02T14:27:28;1.75;;;0.52;;
44536;SDS011;30245;51.966;6.292;2023-07-02T14:29:54;2.95;;;0.95;;
44536;SDS011;30245;51.966;6.292;2023-07-02T14:32:20;2.28;;;0.60;;
44536;SDS011;30245;51.966;6.292;2023-07-02T14:34:45;1.65;;;0.82;;
44536;SDS011;30245;51.966;6.292;2023-07-02T14:37:11;2.67;;;0.75;;
44536;SDS011;30245;51.966;6.292;2023-07-02T14:39:36;3.13;;;1.02;;
44536;SDS011;30245;51.966;6.292;2023-07-02T14:42:02;3.72;;;0.60;;
44536;SDS011;30245;51.966;6.292;2023-07-02T14:44:28;2.35;;;0.70;;
44536;SDS011;30245;51.966;6.292;2023-07-02T14:46:54;3.50;;;0.70;;
44536;SDS011;30245;51.966;6.292;2023-07-02T14:49:19;3.70;;;1.10;;